Pacific Princess — ZCDS3 — position and weather

sailwx.info

Track history (hours):
 
Tides and Currents Weather Stations Pressure Air Temp Water Temp Dewpoint Dewpoint Depression Visibility Wind Speed Wind Dir Waves Ship Positions

Pacific Princess (Bermuda)

Last reported at 2015-Jul-05 00:11 UTC. Time now 2015-Jul-06 11:19 UTC.
Position N 58°19' W 136°12'.

Length 180.5 m; beam 25.6 m; draft 6 m.

Type: Passenger vessel. MMSI: 310504000.

Date/timePositionNaut miles runAvg speedWind from/ knotsBaromVisibWave heightAir tempDewpointWater temp
2015-Jul-05 00:11N 58°19' W 136°12'914.3
2015-Jul-04 23:33N 58°25' W 135°60'9 9.0
2015-Jul-04 22:33N 58°34' W 136°03'8 1.2
2015-Jul-04 15:33N 58°41' W 136°11'1313.1
2015-Jul-04 14:33N 58°29' W 136°03'9 8.9
2015-Jul-04 13:33N 58°20' W 135°57'1111.4
2015-Jul-04 12:33N 58°16' W 135°37'  
2015-Jun-30 14:33N 51°02' W 127°51'1212.4
2015-Jun-30 13:33N 50°53' W 127°37'1312.6
2015-Jun-30 12:33N 50°47' W 127°19'1312.3
2015-Jun-30 11:31N 50°43' W 126°60'6813.7
2015-Jun-30 06:32N 50°14' W 125°23'1613.4
2015-Jun-30 05:19N 49°59' W 125°12'1215.7
2015-Jun-30 04:33N 49°51' W 124°59'1514.6
2015-Jun-30 03:31N 49°40' W 124°43'1616.9
2015-Jun-30 02:33N 49°28' W 124°26'1716.7
2015-Jun-30 01:33N 49°23' W 124°01'1717.0
2015-Jun-30 00:33N 49°20' W 123°36'1717.0
2015-Jun-29 23:33N 49°19' W 123°10'3 2.7
2015-Jun-29 22:31N 49°17' W 123°06'0 0.0
2015-Jun-29 21:31N 49°17' W 123°06'0 0.0
2015-Jun-29 20:31N 49°17' W 123°06'0 0.0
2015-Jun-29 19:31N 49°17' W 123°06'0 0.0
2015-Jun-29 18:31N 49°17' W 123°06'0 0.0
2015-Jun-29 17:31N 49°17' W 123°06'0 0.0
2015-Jun-29 16:31N 49°17' W 123°06'0 0.0
2015-Jun-29 15:31N 49°17' W 123°06'0 0.0
2015-Jun-29 14:31N 49°17' W 123°06'0 0.2
2015-Jun-29 13:33N 49°17' W 123°06'9 9.0
2015-Jun-29 12:33N 49°19' W 123°20'1211.6
2015-Jun-29 11:33N 49°19' W 123°38'1312.1
2015-Jun-29 10:29N 49°21' W 123°57'1412.0
2015-Jun-29 09:20N 49°25' W 124°18'1012.0
2015-Jun-29 08:28N 49°31' W 124°31'1711.9
2015-Jun-29 07:04N 49°43' W 124°49'712.1
2015-Jun-29 06:30N 49°48' W 124°56'9513.6
2015-Jun-28 23:30N 50°42' W 126°58'1717.1
2015-Jun-28 22:32N 50°49' W 127°22'1716.8
2015-Jun-28 21:33N 50°57' W 127°44'1613.1
2015-Jun-28 20:21N 51°06' W 128°04'  
2015-Jun-25 05:20N 58°13' W 135°29'911.8
2015-Jun-25 04:34N 58°18' W 135°44'1110.7
2015-Jun-25 03:33N 58°25' W 135°59'1010.1
2015-Jun-25 02:33N 58°35' W 136°03'  
Track history (hours):
 
Tides and Currents Weather Stations Pressure Air Temp Water Temp Dewpoint Dewpoint Depression Visibility Wind Speed Wind Dir Waves Ship Positions

Pacific Princess (Bermuda)

Last reported at 2015-Jul-05 00:11 UTC. Time now 2015-Jul-06 11:19 UTC.
Position N 58°19' W 136°12'.

Length 180.5 m; beam 25.6 m; draft 6 m.

Type: Passenger vessel. MMSI: 310504000.

Date/timePositionNaut miles runAvg speedWind from/ knotsBaromVisibWave heightAir tempDewpointWater temp
2015-Jul-05 00:11N 58°19' W 136°12'914.3
2015-Jul-04 23:33N 58°25' W 135°60'9 9.0
2015-Jul-04 22:33N 58°34' W 136°03'8 1.2
2015-Jul-04 15:33N 58°41' W 136°11'1313.1
2015-Jul-04 14:33N 58°29' W 136°03'9 8.9
2015-Jul-04 13:33N 58°20' W 135°57'1111.4
2015-Jul-04 12:33N 58°16' W 135°37'  
2015-Jun-30 14:33N 51°02' W 127°51'1212.4
2015-Jun-30 13:33N 50°53' W 127°37'1312.6
2015-Jun-30 12:33N 50°47' W 127°19'1312.3
2015-Jun-30 11:31N 50°43' W 126°60'6813.7
2015-Jun-30 06:32N 50°14' W 125°23'1613.4
2015-Jun-30 05:19N 49°59' W 125°12'1215.7
2015-Jun-30 04:33N 49°51' W 124°59'1514.6
2015-Jun-30 03:31N 49°40' W 124°43'1616.9
2015-Jun-30 02:33N 49°28' W 124°26'1716.7
2015-Jun-30 01:33N 49°23' W 124°01'1717.0
2015-Jun-30 00:33N 49°20' W 123°36'1717.0
2015-Jun-29 23:33N 49°19' W 123°10'3 2.7
2015-Jun-29 22:31N 49°17' W 123°06'0 0.0
2015-Jun-29 21:31N 49°17' W 123°06'0 0.0
2015-Jun-29 20:31N 49°17' W 123°06'0 0.0
2015-Jun-29 19:31N 49°17' W 123°06'0 0.0
2015-Jun-29 18:31N 49°17' W 123°06'0 0.0
2015-Jun-29 17:31N 49°17' W 123°06'0 0.0
2015-Jun-29 16:31N 49°17' W 123°06'0 0.0
2015-Jun-29 15:31N 49°17' W 123°06'0 0.0
2015-Jun-29 14:31N 49°17' W 123°06'0 0.2
2015-Jun-29 13:33N 49°17' W 123°06'9 9.0
2015-Jun-29 12:33N 49°19' W 123°20'1211.6
2015-Jun-29 11:33N 49°19' W 123°38'1312.1
2015-Jun-29 10:29N 49°21' W 123°57'1412.0
2015-Jun-29 09:20N 49°25' W 124°18'1012.0
2015-Jun-29 08:28N 49°31' W 124°31'1711.9
2015-Jun-29 07:04N 49°43' W 124°49'712.1
2015-Jun-29 06:30N 49°48' W 124°56'9513.6
2015-Jun-28 23:30N 50°42' W 126°58'1717.1
2015-Jun-28 22:32N 50°49' W 127°22'1716.8
2015-Jun-28 21:33N 50°57' W 127°44'1613.1
2015-Jun-28 20:21N 51°06' W 128°04'  
2015-Jun-25 05:20N 58°13' W 135°29'911.8
2015-Jun-25 04:34N 58°18' W 135°44'1110.7
2015-Jun-25 03:33N 58°25' W 135°59'1010.1
2015-Jun-25 02:33N 58°35' W 136°03'  

Dump ship's entire track history